Terminal Aerodrome Forecast
Issued by NWS

Home | Current Version | Previous Version | Text Only | Print | Product List | Glossary On
Versions: 1 2 3 4 5 6 7 8 9 10 11 12 13 14 15 16 17 18 19 20 21 22 23 24 25 26 27 28 29 30 31 32 33
000
FTUS42 KCAE 222339
TAFDNL
TAF
KDNL 222339Z 2300/2324 17005KT P6SM VCTS SCT015CB BKN050
      TEMPO 2300/2302 3SM TSRA BR SCT020 BKN030CB OVC060
     FM230800 16004KT 6SM BR SCT010 BKN015
     FM230900 VRB03KT 2SM BR OVC003
     FM231400 22005KT P6SM BKN010
     FM231600 21006KT P6SM VCSH SCT025 BKN050=

USA.gov is the U.S. government's official web portal to all federal, state and local government web resources and services.